Time;durP1;ratioP1;P1;durP2;ratioP2;P2;SDS_P1;SDS_P2;PMS_P1;PMS_P2;Temp;Humidity;BMP_temperature;BMP_pressure;BME280_temperature;BME280_humidity;BME280_pressure;Samples;Min_cycle;Max_cycle;Signal;HPM_P1;HPM_P2
2023/02/02 00:01:39;;;;;;;7.60;2.80;;;3.60;85.60;;;;;;5088593;28;20134;-69
2023/02/02 00:04:04;;;;;;;5.13;2.10;;;3.60;86.40;;;;;;5092543;28;20023;-69
2023/02/02 00:06:31;;;;;;;3.40;1.42;;;3.50;86.90;;;;;;5100711;27;20488;-69
2023/02/02 00:08:58;;;;;;;5.03;1.27;;;3.40;85.80;;;;;;5093722;28;20024;-69
2023/02/02 00:11:24;;;;;;;2.70;1.02;;;3.40;86.00;;;;;;5093332;27;20111;-69
2023/02/02 00:13:50;;;;;;;4.78;1.30;;;3.40;85.00;;;;;;5095326;28;20043;-69
2023/02/02 00:16:24;;;;;;;5.32;1.83;;;3.50;84.10;;;;;;5091464;28;20035;-69
2023/02/02 00:18:50;;;;;;;2.80;1.25;;;3.60;84.70;;;;;;5098941;28;20036;-69
2023/02/02 00:21:16;;;;;;;5.95;1.13;;;3.70;83.80;;;;;;5088960;28;20482;-69
2023/02/02 00:23:41;;;;;;;3.22;1.10;;;3.60;84.30;;;;;;5097755;28;20095;-69
2023/02/02 00:26:07;;;;;;;4.90;1.20;;;3.50;84.30;;;;;;5102529;28;20036;-69
2023/02/02 00:28:33;;;;;;;4.75;2.20;;;3.70;84.00;;;;;;5091558;28;20031;-69
2023/02/02 00:30:58;;;;;;;2.78;1.40;;;3.80;84.30;;;;;;5090434;28;20034;-69
2023/02/02 00:33:24;;;;;;;2.70;1.35;;;3.60;84.70;;;;;;5097136;28;20032;-69
2023/02/02 00:35:52;;;;;;;3.30;1.45;;;3.60;84.20;;;;;;5095921;28;20118;-69
2023/02/02 00:38:17;;;;;;;4.28;1.77;;;3.50;85.20;;;;;;5096030;28;20048;-69
2023/02/02 00:40:43;;;;;;;2.30;0.98;;;3.40;85.60;;;;;;5099281;28;20034;-69
2023/02/02 00:43:09;;;;;;;2.28;0.82;;;3.30;84.60;;;;;;5089549;28;20050;-69
2023/02/02 00:45:36;;;;;;;2.35;0.90;;;3.50;83.70;;;;;;5097708;28;20021;-69
2023/02/02 00:48:02;;;;;;;2.08;0.90;;;3.70;83.10;;;;;;5100943;28;20035;-69
2023/02/02 00:50:28;;;;;;;2.45;1.05;;;3.80;83.20;;;;;;5089557;28;20099;-69
2023/02/02 00:52:54;;;;;;;2.78;1.00;;;3.80;83.80;;;;;;5097428;28;20114;-69
2023/02/02 00:55:20;;;;;;;2.25;1.05;;;3.70;83.20;;;;;;5098292;28;20040;-69
2023/02/02 00:57:46;;;;;;;2.38;0.88;;;3.70;84.50;;;;;;5088729;28;20104;-69
2023/02/02 01:00:22;;;;;;;1.80;0.77;;;3.70;83.30;;;;;;5097241;28;20414;-69
2023/02/02 01:02:53;;;;;;;2.75;0.95;;;4.00;81.40;;;;;;5100102;28;20023;-69
2023/02/02 01:05:19;;;;;;;2.47;1.10;;;3.90;82.80;;;;;;5097112;28;20075;-69
2023/02/02 01:07:45;;;;;;;5.85;1.17;;;3.70;83.00;;;;;;5094911;27;20035;-69
2023/02/02 01:10:16;;;;;;;1.90;0.70;;;3.80;82.90;;;;;;5101135;28;20035;-69
2023/02/02 01:12:42;;;;;;;2.33;0.90;;;4.20;81.40;;;;;;5093210;28;20044;-69
2023/02/02 01:15:09;;;;;;;2.38;1.15;;;4.10;81.80;;;;;;5094878;28;20493;-69
2023/02/02 01:17:36;;;;;;;3.63;1.63;;;4.20;81.70;;;;;;5088868;28;20073;-69
2023/02/02 01:20:01;;;;;;;3.65;1.48;;;3.80;83.80;;;;;;5098691;28;20057;-69
2023/02/02 01:22:27;;;;;;;3.13;1.30;;;3.70;85.20;;;;;;5100242;28;20028;-69
2023/02/02 01:24:53;;;;;;;1.83;0.88;;;3.40;84.40;;;;;;5092873;28;20056;-69
2023/02/02 01:27:18;;;;;;;2.25;1.10;;;3.40;85.00;;;;;;5095631;28;20074;-69
2023/02/02 01:29:44;;;;;;;4.00;1.58;;;3.30;85.00;;;;;;5089830;28;20054;-69
2023/02/02 01:32:10;;;;;;;2.67;1.20;;;3.30;85.50;;;;;;5090742;28;20024;-69
2023/02/02 01:34:39;;;;;;;7.00;2.42;;;3.30;84.00;;;;;;5106008;28;20039;-69
2023/02/02 01:37:05;;;;;;;3.00;1.35;;;3.20;84.70;;;;;;5099311;28;20446;-69
2023/02/02 01:39:30;;;;;;;3.40;1.27;;;3.10;84.90;;;;;;5089059;27;20051;-69
2023/02/02 01:41:56;;;;;;;2.90;0.98;;;3.40;83.60;;;;;;5097721;28;20076;-69
2023/02/02 01:44:50;;;;;;;3.13;1.52;;;3.50;83.80;;;;;;5096951;28;20367;-69
2023/02/02 01:47:16;;;;;;;1.83;1.05;;;3.50;83.70;;;;;;5104139;28;20363;-69
2023/02/02 01:49:42;;;;;;;3.38;1.10;;;3.40;84.40;;;;;;5097805;28;20036;-69
2023/02/02 01:52:09;;;;;;;3.03;1.40;;;3.40;83.90;;;;;;5093895;28;20036;-69
2023/02/02 01:54:40;;;;;;;3.22;1.35;;;3.60;83.50;;;;;;5095262;28;20035;-69
2023/02/02 01:57:12;;;;;;;2.97;1.20;;;3.40;84.70;;;;;;5091829;28;20466;-69
2023/02/02 01:59:38;;;;;;;3.13;1.35;;;3.30;84.30;;;;;;5097941;28;20031;-69
2023/02/02 02:02:04;;;;;;;2.97;1.25;;;3.40;83.50;;;;;;5093984;28;20054;-69
2023/02/02 02:04:31;;;;;;;2.70;1.10;;;3.70;83.10;;;;;;5097947;28;20093;-69
2023/02/02 02:06:59;;;;;;;4.82;1.80;;;3.50;84.20;;;;;;5096941;28;20047;-69
2023/02/02 02:09:24;;;;;;;4.22;1.83;;;3.20;84.90;;;;;;5108293;28;20473;-69
2023/02/02 02:11:52;;;;;;;3.80;1.50;;;3.00;86.60;;;;;;5098050;28;20069;-69
2023/02/02 02:17:20;;;;;;;2.65;1.02;;;2.70;85.70;;;;;;5097150;28;20070;-69
2023/02/02 02:26:34;;;;;;;2.42;1.20;;;2.90;85.30;;;;;;5102423;28;20034;-69
2023/02/02 02:29:17;;;;;;;1.55;0.65;;;3.00;85.00;;;;;;5095359;28;20032;-69
2023/02/02 02:31:45;;;;;;;3.30;1.00;;;2.80;86.90;;;;;;5098835;28;20036;-69
2023/02/02 02:34:21;;;;;;;1.83;0.98;;;2.80;85.70;;;;;;5090495;28;20036;-69
2023/02/02 02:36:56;;;;;;;2.50;1.17;;;2.90;84.70;;;;;;5100397;28;20032;-69
2023/02/02 02:39:28;;;;;;;1.45;0.73;;;3.00;85.40;;;;;;5099443;28;20031;-69
2023/02/02 02:41:59;;;;;;;3.08;1.13;;;2.80;86.80;;;;;;5105477;28;20739;-69
2023/02/02 02:44:26;;;;;;;3.17;1.17;;;2.80;85.20;;;;;;5101143;28;20389;-69
2023/02/02 02:46:52;;;;;;;3.78;0.98;;;2.90;84.70;;;;;;5111406;28;20088;-69
2023/02/02 02:49:18;;;;;;;1.27;0.55;;;2.80;86.90;;;;;;5100458;28;20040;-69
2023/02/02 02:51:51;;;;;;;1.52;0.60;;;2.80;85.20;;;;;;5096341;28;20119;-69
2023/02/02 02:54:25;;;;;;;3.08;1.30;;;2.60;87.10;;;;;;5096317;28;20553;-69
2023/02/02 02:57:13;;;;;;;3.38;1.40;;;2.60;86.20;;;;;;5096933;28;20024;-69
2023/02/02 02:59:52;;;;;;;3.80;1.90;;;2.70;85.40;;;;;;5099823;28;20493;-69
2023/02/02 03:02:27;;;;;;;1.95;0.80;;;2.60;85.80;;;;;;5099622;28;20468;-69
2023/02/02 03:05:11;;;;;;;1.88;0.80;;;2.80;85.10;;;;;;5092892;28;20051;-69
2023/02/02 03:07:49;;;;;;;3.17;0.80;;;2.80;85.70;;;;;;5094213;28;20385;-69
2023/02/02 03:10:19;;;;;;;2.38;0.82;;;2.70;87.00;;;;;;5094232;28;20478;-69
2023/02/02 03:12:49;;;;;;;2.20;0.75;;;2.40;87.60;;;;;;5099363;28;20097;-70
2023/02/02 03:15:16;;;;;;;3.42;0.75;;;2.30;87.60;;;;;;5101161;28;20898;-69
2023/02/02 03:17:43;;;;;;;2.42;0.80;;;2.20;88.10;;;;;;5091501;28;20028;-69
2023/02/02 03:20:09;;;;;;;1.65;0.52;;;2.30;87.60;;;;;;5099907;28;20073;-69
2023/02/02 03:22:35;;;;;;;2.42;0.77;;;2.30;86.00;;;;;;5104756;28;20019;-69
2023/02/02 03:25:01;;;;;;;0.90;0.38;;;2.40;86.10;;;;;;5102245;28;20043;-69
2023/02/02 03:27:27;;;;;;;1.77;0.80;;;2.50;85.80;;;;;;5099993;28;20028;-69
2023/02/02 03:29:53;;;;;;;3.78;0.85;;;2.70;84.60;;;;;;5096213;28;20051;-69
2023/02/02 03:32:20;;;;;;;2.67;0.85;;;3.00;83.90;;;;;;5099344;28;20036;-69
2023/02/02 03:34:45;;;;;;;2.10;1.13;;;2.90;84.40;;;;;;5091714;28;20032;-69
2023/02/02 03:37:11;;;;;;;3.65;1.33;;;2.80;85.00;;;;;;5105786;28;20078;-69
2023/02/02 03:39:36;;;;;;;2.47;1.10;;;2.70;85.50;;;;;;5094919;27;20024;-69
2023/02/02 03:42:02;;;;;;;1.52;0.75;;;2.40;85.30;;;;;;5103498;28;20023;-69
2023/02/02 03:44:28;;;;;;;2.45;0.90;;;2.50;85.00;;;;;;5098676;28;20016;-69
2023/02/02 03:46:53;;;;;;;3.45;1.48;;;2.60;85.00;;;;;;5092364;28;20046;-69
2023/02/02 03:49:19;;;;;;;3.40;1.13;;;2.70;85.30;;;;;;5097529;28;20023;-69
2023/02/02 03:51:45;;;;;;;3.53;1.40;;;2.80;86.00;;;;;;5104972;28;20051;-69
2023/02/02 03:54:11;;;;;;;6.05;1.50;;;2.60;86.20;;;;;;5096370;28;20497;-69
2023/02/02 03:56:37;;;;;;;2.70;0.98;;;2.50;85.50;;;;;;5101320;28;20035;-69
2023/02/02 03:59:02;;;;;;;1.63;0.70;;;2.40;85.30;;;;;;5091274;28;20111;-69
2023/02/02 04:01:28;;;;;;;2.50;0.95;;;2.40;85.30;;;;;;5092327;28;20098;-68
2023/02/02 04:03:55;;;;;;;1.60;0.70;;;2.50;85.10;;;;;;5095271;28;20055;-68
2023/02/02 04:06:21;;;;;;;2.80;1.00;;;2.80;83.60;;;;;;5086493;28;20032;-68
2023/02/02 04:08:47;;;;;;;3.28;0.93;;;2.90;84.20;;;;;;5101379;27;20028;-68
2023/02/02 04:11:13;;;;;;;0.32;0.30;;;3.00;83.70;;;;;;5094199;28;20524;-68
2023/02/02 04:13:39;;;;;;;3.85;0.85;;;3.10;82.80;;;;;;5100029;28;20848;-68
2023/02/02 04:16:05;;;;;;;3.03;0.95;;;3.10;83.10;;;;;;5092466;28;20031;-68
2023/02/02 04:18:31;;;;;;;3.85;1.40;;;2.90;83.60;;;;;;5094279;28;20032;-68
2023/02/02 04:20:58;;;;;;;4.38;1.80;;;2.90;84.00;;;;;;5096580;28;20031;-68
2023/02/02 04:23:24;;;;;;;4.90;1.35;;;2.80;84.70;;;;;;5088884;28;20027;-68
2023/02/02 04:25:51;;;;;;;2.83;1.33;;;2.80;85.30;;;;;;5090569;28;20528;-68
2023/02/02 04:28:16;;;;;;;1.40;0.55;;;2.80;84.10;;;;;;5093813;28;20047;-68
2023/02/02 04:30:42;;;;;;;1.83;0.85;;;2.90;83.50;;;;;;5095019;28;20016;-68
2023/02/02 04:33:08;;;;;;;3.45;1.20;;;2.90;84.40;;;;;;5097631;28;20031;-68
2023/02/02 04:35:33;;;;;;;2.65;1.02;;;2.80;84.80;;;;;;5098140;28;20108;-68
2023/02/02 04:37:59;;;;;;;3.28;1.35;;;2.70;85.60;;;;;;5089997;28;20070;-68
2023/02/02 04:40:25;;;;;;;2.58;0.85;;;2.60;85.20;;;;;;5092679;28;20135;-68
2023/02/02 04:42:51;;;;;;;3.65;1.23;;;2.50;85.20;;;;;;5089654;28;20043;-68
2023/02/02 04:45:17;;;;;;;1.45;0.90;;;2.60;84.90;;;;;;5085837;28;20032;-68
2023/02/02 04:47:42;;;;;;;1.90;0.85;;;2.80;84.50;;;;;;5093687;28;20066;-68
2023/02/02 04:50:09;;;;;;;4.65;1.23;;;2.70;84.80;;;;;;5092512;27;20393;-68
2023/02/02 04:52:34;;;;;;;2.83;1.00;;;2.80;84.60;;;;;;5093356;28;20054;-68
2023/02/02 04:55:00;;;;;;;3.15;0.98;;;2.80;86.00;;;;;;5096388;28;20035;-68
2023/02/02 04:57:26;;;;;;;2.85;1.17;;;2.50;86.20;;;;;;5090105;28;20103;-68
2023/02/02 04:59:51;;;;;;;4.50;1.50;;;2.40;85.40;;;;;;5094996;28;20068;-68
2023/02/02 05:02:18;;;;;;;4.28;2.08;;;2.50;85.20;;;;;;5099810;28;20107;-68
2023/02/02 05:04:44;;;;;;;4.30;1.90;;;2.80;84.70;;;;;;5090653;28;20028;-68
2023/02/02 05:07:10;;;;;;;2.90;1.27;;;2.70;85.90;;;;;;5082742;28;20496;-68
2023/02/02 05:09:35;;;;;;;2.40;1.08;;;2.60;85.30;;;;;;5096433;28;20162;-68
2023/02/02 05:12:01;;;;;;;3.05;1.40;;;2.60;85.00;;;;;;5096408;28;20034;-68
2023/02/02 05:14:27;;;;;;;1.83;0.90;;;2.70;85.20;;;;;;5082585;28;20583;-68
2023/02/02 05:16:53;;;;;;;4.95;2.33;;;2.50;86.10;;;;;;5089884;28;20027;-68
2023/02/02 05:19:18;;;;;;;6.22;1.73;;;2.50;86.30;;;;;;5081169;28;20104;-68
2023/02/02 05:21:44;;;;;;;3.53;1.30;;;2.60;86.00;;;;;;5096844;28;20077;-68
2023/02/02 05:24:11;;;;;;;4.38;1.90;;;2.60;85.90;;;;;;5094981;28;20187;-68
2023/02/02 05:26:37;;;;;;;5.57;2.20;;;2.50;86.80;;;;;;5085606;28;20035;-68
2023/02/02 05:29:03;;;;;;;4.65;1.60;;;2.60;86.00;;;;;;5091236;28;20035;-68
2023/02/02 05:31:30;;;;;;;2.42;1.23;;;2.60;85.60;;;;;;5091023;28;20024;-68
2023/02/02 05:33:55;;;;;;;3.95;1.13;;;2.60;86.00;;;;;;5084913;28;20473;-68
2023/02/02 05:36:21;;;;;;;3.40;1.50;;;2.40;86.50;;;;;;5093979;28;20058;-68
2023/02/02 05:38:47;;;;;;;3.28;1.70;;;2.40;86.00;;;;;;5086863;28;20039;-68
2023/02/02 05:41:12;;;;;;;4.88;2.10;;;2.50;86.10;;;;;;5081006;28;20146;-68
2023/02/02 05:43:38;;;;;;;5.25;2.20;;;2.50;85.90;;;;;;5089173;28;20118;-68
2023/02/02 05:46:03;;;;;;;4.80;1.40;;;2.40;86.20;;;;;;5080956;28;20038;-68
2023/02/02 05:48:29;;;;;;;2.50;1.00;;;2.50;85.70;;;;;;5090177;28;20031;-68
2023/02/02 05:51:10;;;;;;;3.28;1.50;;;2.50;86.20;;;;;;5091334;28;20488;-68
2023/02/02 05:53:36;;;;;;;5.78;1.98;;;2.50;86.20;;;;;;5096764;28;20632;-68
2023/02/02 05:56:02;;;;;;;3.25;1.92;;;2.50;86.50;;;;;;5088478;28;20027;-68
2023/02/02 05:58:27;;;;;;;3.92;1.70;;;2.40;86.20;;;;;;5088821;28;20427;-68
2023/02/02 06:00:53;;;;;;;3.42;1.38;;;2.30;87.10;;;;;;5089984;28;20044;-68
2023/02/02 06:03:19;;;;;;;2.40;0.90;;;2.30;86.40;;;;;;5090831;28;20429;-68
2023/02/02 06:05:45;;;;;;;4.93;1.73;;;2.20;87.00;;;;;;5092849;28;20024;-68
2023/02/02 06:08:11;;;;;;;2.67;1.10;;;2.40;86.80;;;;;;5091096;28;20067;-68
2023/02/02 06:10:41;;;;;;;2.95;1.02;;;2.50;86.80;;;;;;5086870;28;20074;-68
2023/02/02 06:13:07;;;;;;;1.27;0.70;;;2.40;86.10;;;;;;5088569;28;20110;-68
2023/02/02 06:15:33;;;;;;;2.95;1.20;;;2.50;86.20;;;;;;5083775;28;20040;-68
2023/02/02 06:18:00;;;;;;;3.88;1.52;;;2.40;86.60;;;;;;5081782;28;20047;-68
2023/02/02 06:20:25;;;;;;;5.60;2.30;;;2.40;86.30;;;;;;5086905;28;20054;-68
2023/02/02 06:22:51;;;;;;;4.63;1.70;;;2.40;86.40;;;;;;5092707;28;20031;-68
2023/02/02 06:25:17;;;;;;;4.65;1.98;;;2.60;85.80;;;;;;5088775;28;23892;-68
2023/02/02 06:27:45;;;;;;;3.53;1.30;;;2.50;86.00;;;;;;5097398;28;20102;-69
2023/02/02 06:30:11;;;;;;;3.42;1.40;;;2.60;85.90;;;;;;5094338;28;20032;-68
2023/02/02 06:32:37;;;;;;;3.50;1.67;;;2.50;86.60;;;;;;5085296;28;20111;-69
2023/02/02 06:35:04;;;;;;;4.82;1.58;;;2.50;86.00;;;;;;5086743;28;20139;-69
2023/02/02 06:37:29;;;;;;;2.97;1.25;;;2.40;88.10;;;;;;5088793;28;20050;-69
2023/02/02 06:39:55;;;;;;;2.20;0.90;;;2.40;86.00;;;;;;5097371;28;20471;-68
2023/02/02 06:42:21;;;;;;;2.15;0.93;;;2.30;86.70;;;;;;5099634;28;20512;-69
2023/02/02 06:44:46;;;;;;;2.60;1.15;;;2.40;85.80;;;;;;5097800;28;20051;-68
2023/02/02 06:47:12;;;;;;;3.50;1.20;;;2.30;86.30;;;;;;5087715;28;20046;-68
2023/02/02 06:49:37;;;;;;;3.65;1.50;;;2.30;86.40;;;;;;5084068;28;20119;-69
2023/02/02 06:52:03;;;;;;;3.92;1.83;;;2.30;86.70;;;;;;5088510;28;20431;-68
2023/02/02 06:54:29;;;;;;;5.13;2.20;;;2.20;87.40;;;;;;5083056;28;20491;-69
2023/02/02 06:56:54;;;;;;;5.28;2.17;;;2.20;86.80;;;;;;5080537;28;20389;-69
2023/02/02 06:59:20;;;;;;;4.20;1.52;;;2.20;87.30;;;;;;5091042;28;20032;-69
2023/02/02 07:01:48;;;;;;;5.28;1.52;;;2.10;87.70;;;;;;5081071;28;20031;-69
2023/02/02 07:04:15;;;;;;;5.68;1.70;;;2.10;87.80;;;;;;5085047;28;20736;-69
2023/02/02 07:06:41;;;;;;;5.40;1.25;;;2.30;87.10;;;;;;5084872;28;20534;-68
2023/02/02 07:09:06;;;;;;;3.55;1.20;;;2.30;87.40;;;;;;5088130;28;20027;-69
2023/02/02 07:11:34;;;;;;;4.50;1.33;;;2.20;88.10;;;;;;5090390;28;20434;-69
2023/02/02 07:14:00;;;;;;;5.90;1.38;;;2.10;88.10;;;;;;5084613;28;20098;-69
2023/02/02 07:16:26;;;;;;;2.88;1.00;;;2.20;87.50;;;;;;5088475;28;20059;-69
2023/02/02 07:18:52;;;;;;;2.70;0.70;;;2.40;87.20;;;;;;5087118;28;20062;-69
2023/02/02 07:21:21;;;;;;;1.95;0.90;;;2.70;86.10;;;;;;5084857;28;20055;-69
2023/02/02 07:23:47;;;;;;;1.23;0.75;;;2.80;86.00;;;;;;5095786;28;20428;-69
2023/02/02 07:26:14;;;;;;;6.13;1.70;;;2.70;85.80;;;;;;5095717;28;20476;-69
2023/02/02 07:28:40;;;;;;;6.28;1.85;;;2.60;87.60;;;;;;5087357;28;20020;-69
2023/02/02 07:31:31;;;;;;;3.90;1.75;;;2.30;88.10;;;;;;5095747;28;20024;-69
2023/02/02 07:33:57;;;;;;;4.43;1.40;;;2.20;88.20;;;;;;5086134;28;20039;-69
2023/02/02 07:36:23;;;;;;;4.97;1.40;;;2.10;88.90;;;;;;5097186;28;20471;-69
2023/02/02 07:38:56;;;;;;;4.75;1.80;;;2.10;88.00;;;;;;5088095;28;20027;-68
2023/02/02 07:41:22;;;;;;;3.05;1.17;;;2.20;88.10;;;;;;5088147;28;20111;-69
2023/02/02 07:43:48;;;;;;;2.75;0.90;;;2.20;88.20;;;;;;5090667;28;20031;-69
2023/02/02 07:46:15;;;;;;;4.07;1.15;;;2.30;89.40;;;;;;5089095;28;20432;-69
2023/02/02 07:48:40;;;;;;;4.60;1.55;;;2.20;88.80;;;;;;5094029;28;20058;-69
2023/02/02 07:51:10;;;;;;;4.20;1.10;;;2.20;88.30;;;;;;5085539;28;20071;-69
2023/02/02 07:53:35;;;;;;;2.33;0.98;;;2.10;90.10;;;;;;5086197;28;20114;-69
2023/02/02 07:56:14;;;;;;;3.90;0.85;;;2.00;90.40;;;;;;5085731;28;21511;-69
2023/02/02 07:58:41;;;;;;;2.85;0.90;;;2.10;90.30;;;;;;5089884;28;20035;-69
2023/02/02 08:01:08;;;;;;;3.05;1.02;;;2.10;89.90;;;;;;5091118;28;20036;-69
2023/02/02 08:03:35;;;;;;;2.63;1.10;;;2.40;88.40;;;;;;5098320;28;20077;-69
2023/02/02 08:06:08;;;;;;;5.30;1.42;;;2.30;88.90;;;;;;5089622;28;20025;-69
2023/02/02 08:08:34;;;;;;;4.43;1.35;;;2.40;87.50;;;;;;5091060;28;20026;-69
2023/02/02 08:11:00;;;;;;;2.67;1.25;;;2.50;87.80;;;;;;5095991;28;20055;-69
2023/02/02 08:13:25;;;;;;;2.45;1.15;;;2.40;89.60;;;;;;5091303;28;20024;-69
2023/02/02 08:15:51;;;;;;;4.03;1.08;;;2.40;90.00;;;;;;5081184;27;20039;-69
2023/02/02 08:18:16;;;;;;;2.08;0.80;;;2.40;88.60;;;;;;5094108;28;20039;-69
2023/02/02 08:20:42;;;;;;;2.80;0.85;;;2.30;90.60;;;;;;5082519;28;20115;-69
2023/02/02 08:23:14;;;;;;;1.70;0.73;;;2.30;90.50;;;;;;5090814;28;20039;-69
2023/02/02 08:25:40;;;;;;;4.03;1.23;;;2.10;90.60;;;;;;5094651;28;20035;-69
2023/02/02 08:28:06;;;;;;;4.72;1.65;;;2.10;90.50;;;;;;5094696;28;20023;-69
2023/02/02 08:30:33;;;;;;;5.18;1.52;;;2.10;91.00;;;;;;5084051;28;20039;-69
2023/02/02 08:32:58;;;;;;;5.63;1.98;;;2.00;90.90;;;;;;5090327;28;20034;-69
2023/02/02 08:35:24;;;;;;;5.07;0.80;;;2.00;90.90;;;;;;5081448;28;20040;-69
2023/02/02 08:37:50;;;;;;;7.22;2.53;;;2.30;90.00;;;;;;5089000;28;23456;-69
2023/02/02 08:40:15;;;;;;;7.40;2.60;;;2.20;90.50;;;;;;5082060;28;20044;-69
2023/02/02 08:42:42;;;;;;;5.50;2.25;;;2.00;90.60;;;;;;5097462;28;20081;-69
2023/02/02 08:45:08;;;;;;;3.38;1.20;;;2.10;91.10;;;;;;5093795;28;20032;-69
2023/02/02 08:47:34;;;;;;;5.63;1.65;;;2.10;91.30;;;;;;5096519;27;20084;-69
2023/02/02 08:49:59;;;;;;;2.53;0.80;;;2.10;91.40;;;;;;5085842;28;20019;-69
2023/02/02 08:52:25;;;;;;;7.95;2.50;;;2.00;91.60;;;;;;5086731;28;20028;-69
2023/02/02 08:54:50;;;;;;;5.78;1.60;;;1.90;91.00;;;;;;5099573;28;20695;-69
2023/02/02 08:57:16;;;;;;;5.78;1.92;;;2.00;90.70;;;;;;5088511;28;20032;-69
2023/02/02 08:59:42;;;;;;;3.05;1.67;;;2.10;90.90;;;;;;5092038;28;20104;-69
2023/02/02 09:02:15;;;;;;;4.78;1.48;;;2.30;89.30;;;;;;5085138;28;20114;-69
2023/02/02 09:04:44;;;;;;;7.80;2.85;;;2.50;88.30;;;;;;5094158;28;20487;-69
2023/02/02 09:07:10;;;;;;;6.10;3.38;;;2.60;89.40;;;;;;5079806;27;20036;-69
2023/02/02 09:09:35;;;;;;;7.47;3.60;;;2.40;90.20;;;;;;5079893;28;20039;-69
2023/02/02 09:12:01;;;;;;;4.20;2.15;;;2.30;89.80;;;;;;5090039;28;20032;-69
2023/02/02 09:14:26;;;;;;;4.45;1.63;;;2.30;89.70;;;;;;5080986;28;20397;-69
2023/02/02 09:16:52;;;;;;;4.53;1.65;;;2.30;89.70;;;;;;5087942;28;20034;-69
2023/02/02 09:19:18;;;;;;;4.43;1.65;;;2.30;90.10;;;;;;5089413;28;20024;-69
2023/02/02 09:21:43;;;;;;;7.63;1.90;;;2.40;89.30;;;;;;5085875;28;20044;-69
2023/02/02 09:24:12;;;;;;;5.00;1.60;;;2.60;90.10;;;;;;5083258;28;20519;-69
2023/02/02 09:26:39;;;;;;;3.72;0.90;;;2.50;90.00;;;;;;5088102;28;20050;-69
2023/02/02 09:29:07;;;;;;;3.85;1.23;;;2.50;89.50;;;;;;5087709;28;20027;-69
2023/02/02 09:31:34;;;;;;;4.10;1.52;;;2.60;88.90;;;;;;5080594;28;20123;-69
2023/02/02 09:34:05;;;;;;;6.72;2.60;;;2.60;89.50;;;;;;5081618;28;20063;-69
2023/02/02 09:36:32;;;;;;;3.88;1.98;;;2.70;88.40;;;;;;5081773;28;20046;-69
2023/02/02 09:38:58;;;;;;;3.85;1.70;;;2.80;88.60;;;;;;5083943;28;20063;-69
2023/02/02 09:41:39;;;;;;;3.25;1.58;;;2.90;87.10;;;;;;5083146;28;20028;-69
2023/02/02 09:44:13;;;;;;;3.55;1.60;;;2.80;88.10;;;;;;5090519;28;20079;-69
2023/02/02 09:47:00;;;;;;;3.78;1.60;;;2.90;87.50;;;;;;5082025;28;20028;-69
2023/02/02 09:49:39;;;;;;;3.95;2.13;;;3.00;87.00;;;;;;5092894;28;20046;-69
2023/02/02 09:52:32;;;;;;;6.18;2.40;;;3.10;86.80;;;;;;5087047;28;20032;-69
2023/02/02 09:55:40;;;;;;;4.40;1.92;;;3.30;86.90;;;;;;5085259;28;20047;-69
2023/02/02 09:58:32;;;;;;;2.90;1.55;;;3.50;85.80;;;;;;5065867;28;20115;-69
2023/02/02 10:01:03;;;;;;;3.28;1.45;;;3.60;85.20;;;;;;5084284;28;20115;-69
2023/02/02 10:03:52;;;;;;;2.72;1.20;;;3.70;84.60;;;;;;5090903;28;20047;-69
2023/02/02 10:06:39;;;;;;;4.05;1.67;;;3.80;84.20;;;;;;5087635;28;20605;-69
2023/02/02 10:09:39;;;;;;;4.55;2.33;;;4.00;84.40;;;;;;5089827;28;20393;-69
2023/02/02 10:12:28;;;;;;;5.75;2.50;;;4.00;83.80;;;;;;5083146;28;20039;-70
2023/02/02 10:15:11;;;;;;;5.30;2.20;;;4.10;84.90;;;;;;5083165;28;20032;-69
2023/02/02 10:17:47;;;;;;;5.43;2.40;;;4.20;84.40;;;;;;5093387;28;20470;-69
2023/02/02 10:20:55;;;;;;;5.88;2.47;;;4.30;84.30;;;;;;5089547;28;20135;-69
2023/02/02 10:23:28;;;;;;;6.03;2.88;;;4.40;86.90;;;;;;5064338;28;20421;-69
2023/02/02 10:26:07;;;;;;;7.55;3.65;;;4.30;87.30;;;;;;5082825;28;20020;-69
2023/02/02 10:29:04;;;;;;;5.88;2.40;;;4.40;87.50;;;;;;5083891;28;20063;-69
2023/02/02 10:31:42;;;;;;;13.38;4.75;;;4.50;87.30;;;;;;5084312;28;20097;-69
2023/02/02 10:34:24;;;;;;;8.45;4.70;;;4.60;90.20;;;;;;5084448;28;20032;-69
2023/02/02 10:37:05;;;;;;;9.77;4.45;;;4.50;89.90;;;;;;5087382;28;20563;-69
2023/02/02 10:39:45;;;;;;;8.32;4.00;;;4.60;88.90;;;;;;5082500;28;20024;-69
2023/02/02 10:43:44;;;;;;;5.93;2.72;;;4.70;88.10;;;;;;5083028;28;20416;-69
2023/02/02 10:45:36;;;;;;;4.10;2.20;;;4.80;86.70;;;;;;5083530;28;20119;-69
2023/02/02 10:48:12;;;;;;;5.53;1.90;;;5.10;84.40;;;;;;5082452;28;20024;-69
2023/02/02 10:50:46;;;;;;;2.63;1.33;;;5.30;83.80;;;;;;5082819;28;20032;-69
2023/02/02 10:53:13;;;;;;;3.58;1.50;;;5.50;83.90;;;;;;5081908;28;20072;-70
2023/02/02 10:55:51;;;;;;;5.25;1.92;;;5.70;84.20;;;;;;5081942;28;20136;-69
2023/02/02 10:58:31;;;;;;;6.63;2.60;;;5.90;84.50;;;;;;5088712;28;20478;-69
2023/02/02 11:01:00;;;;;;;4.82;2.10;;;5.90;83.80;;;;;;5101360;27;20023;-69
2023/02/02 11:03:32;;;;;;;9.70;5.22;;;6.00;84.50;;;;;;5097970;28;20055;-69
2023/02/02 11:08:47;;;;;;;7.25;4.00;;;6.20;85.90;;;;;;5086000;28;20125;-69
2023/02/02 11:11:31;;;;;;;5.55;3.28;;;6.30;86.00;;;;;;5087108;28;20128;-69
2023/02/02 11:14:09;;;;;;;6.13;3.65;;;6.50;86.10;;;;;;5096828;28;20027;-69
2023/02/02 11:16:37;;;;;;;29.67;5.40;;;6.50;85.40;;;;;;5096546;28;20019;-69
2023/02/02 11:19:21;;;;;;;18.80;4.13;;;6.90;87.70;;;;;;5092237;28;20046;-69
2023/02/02 11:21:55;;;;;;;7.75;4.30;;;6.90;85.70;;;;;;5099568;28;20435;-69
2023/02/02 11:24:27;;;;;;;8.55;4.40;;;6.80;85.10;;;;;;5086422;28;20024;-70
2023/02/02 11:26:57;;;;;;;10.60;4.70;;;6.80;85.00;;;;;;5087942;28;20405;-69
2023/02/02 11:29:37;;;;;;;6.22;3.63;;;6.90;85.20;;;;;;5090078;27;20035;-70
2023/02/02 11:32:24;;;;;;;9.38;4.10;;;7.00;85.20;;;;;;5089255;28;20020;-69
2023/02/02 11:35:14;;;;;;;7.85;3.60;;;7.00;84.40;;;;;;5090715;28;20512;-69
2023/02/02 11:37:56;;;;;;;6.78;3.50;;;7.40;84.10;;;;;;5093421;28;20072;-69
2023/02/02 11:40:22;;;;;;;4.57;2.70;;;7.60;84.00;;;;;;5093243;28;20055;-70
2023/02/02 11:42:50;;;;;;;9.35;4.10;;;7.90;84.40;;;;;;5093752;28;20039;-70
2023/02/02 11:45:18;;;;;;;14.82;3.50;;;8.20;84.80;;;;;;5097030;28;20152;-69
2023/02/02 11:47:45;;;;;;;7.60;3.50;;;8.20;83.60;;;;;;5097423;28;20031;-69
2023/02/02 11:50:25;;;;;;;13.48;4.85;;;8.30;83.70;;;;;;5090459;28;20079;-70
2023/02/02 11:52:51;;;;;;;8.93;4.03;;;8.50;84.80;;;;;;5099560;28;20027;-69
2023/02/02 11:55:25;;;;;;;10.00;4.90;;;8.50;84.90;;;;;;5095421;28;20058;-69
2023/02/02 11:58:10;;;;;;;;;;;8.50;84.40;;;;;;5086162;28;20059;-69
2023/02/02 12:00:46;;;;;;;8.95;4.43;;;8.30;83.70;;;;;;5084250;28;19915;-69
2023/02/02 12:03:28;;;;;;;10.52;5.03;;;8.30;83.60;;;;;;5092933;28;20066;-70
2023/02/02 12:05:54;;;;;;;10.70;5.55;;;8.30;83.20;;;;;;5086982;28;20028;-69
2023/02/02 12:08:20;;;;;;;8.18;4.50;;;8.50;83.90;;;;;;5098274;28;20484;-69
2023/02/02 12:11:02;;;;;;;9.25;4.68;;;8.70;84.10;;;;;;5096598;28;20030;-70
2023/02/02 12:13:28;;;;;;;10.45;4.70;;;8.60;83.20;;;;;;5083784;28;20036;-70
2023/02/02 12:16:29;;;;;;;9.25;5.43;;;8.70;82.80;;;;;;5082840;28;20778;-70
2023/02/02 12:19:36;;;;;;;8.48;4.50;;;8.80;83.60;;;;;;5079592;28;20087;-70
2023/02/02 12:22:26;;;;;;;7.13;4.85;;;8.90;83.30;;;;;;5083421;28;20063;-70
2023/02/02 12:25:17;;;;;;;6.07;3.35;;;9.00;82.70;;;;;;5092788;28;20035;-69
2023/02/02 12:27:46;;;;;;;5.88;3.47;;;9.30;81.70;;;;;;5092511;28;20046;-69
2023/02/02 12:30:25;;;;;;;7.40;3.25;;;9.40;81.20;;;;;;5085735;28;20043;-70
2023/02/02 12:33:06;;;;;;;8.50;3.60;;;9.90;81.30;;;;;;5093424;28;20036;-69
2023/02/02 12:36:09;;;;;;;3.92;2.03;;;10.40;80.60;;;;;;5090438;28;20035;-69
2023/02/02 12:39:21;;;;;;;3.17;1.73;;;10.30;79.60;;;;;;5086811;28;20562;-71
2023/02/02 12:42:14;;;;;;;6.25;2.55;;;10.50;78.20;;;;;;5099353;28;20493;-70
2023/02/02 12:44:49;;;;;;;5.25;2.42;;;10.60;78.40;;;;;;5084590;28;20398;-70
2023/02/02 12:47:43;;;;;;;4.32;2.47;;;10.50;79.00;;;;;;5086941;28;20023;-70
2023/02/02 12:50:29;;;;;;;6.60;2.78;;;10.60;77.60;;;;;;5098718;28;20039;-70
2023/02/02 12:53:18;;;;;;;5.80;2.72;;;10.50;78.00;;;;;;5081925;28;20039;-70
2023/02/02 12:56:05;;;;;;;4.68;1.80;;;10.70;78.20;;;;;;5090218;28;20467;-70
2023/02/02 12:58:52;;;;;;;6.88;1.88;;;10.80;77.20;;;;;;5093000;28;20020;-70
2023/02/02 13:01:37;;;;;;;3.78;1.85;;;11.00;77.60;;;;;;5097474;28;20512;-70
2023/02/02 13:04:27;;;;;;;3.80;1.77;;;11.10;78.10;;;;;;5097156;28;20024;-70
2023/02/02 13:07:29;;;;;;;4.95;1.58;;;11.10;76.80;;;;;;5096839;28;20035;-70
2023/02/02 13:10:00;;;;;;;3.53;1.50;;;11.20;77.50;;;;;;5082768;28;20081;-70
2023/02/02 13:12:28;;;;;;;2.63;1.00;;;11.40;76.20;;;;;;5089724;28;20204;-70
2023/02/02 13:15:08;;;;;;;4.38;1.58;;;11.10;75.10;;;;;;5093895;28;20061;-71
2023/02/02 13:18:09;;;;;;;5.80;1.83;;;11.30;76.00;;;;;;5082748;28;20055;-70
2023/02/02 13:20:45;;;;;;;3.72;1.40;;;11.60;76.60;;;;;;5034731;28;20039;-71
2023/02/02 13:23:24;;;;;;;3.22;1.35;;;11.30;75.70;;;;;;5096646;28;20051;-70
2023/02/02 13:26:03;;;;;;;2.63;1.02;;;11.50;75.80;;;;;;5092500;28;21498;-71
2023/02/02 13:28:43;;;;;;;3.53;1.65;;;11.40;75.10;;;;;;5084508;28;20059;-70